createdAt,value
2017-09-05T00:00:03.243Z,96.75
2017-09-05T00:01:03.250Z,97.61
2017-09-05T00:02:03.284Z,96.94
2017-09-05T00:03:03.296Z,97.03
2017-09-05T00:04:03.315Z,97.03
2017-09-05T00:05:03.341Z,96.94
2017-09-05T00:06:03.366Z,97.03
2017-09-05T00:07:03.393Z,97.03
2017-09-05T00:09:03.431Z,97.22
2017-09-05T00:10:03.452Z,97.03
2017-09-05T00:12:03.509Z,96.46
2017-09-05T00:13:03.520Z,97.61
2017-09-05T00:14:03.546Z,96.66
2017-09-05T00:15:03.576Z,96.66
2017-09-05T00:16:03.590Z,97.32
2017-09-05T00:17:03.622Z,97.32
2017-09-05T00:18:03.632Z,97.51
2017-09-05T00:19:03.662Z,97.32
2017-09-05T00:20:03.666Z,97.13
2017-09-05T00:21:03.706Z,97.13
2017-09-05T00:22:03.718Z,97.32
2017-09-05T00:23:03.746Z,97.51
2017-09-05T00:25:03.476Z,97.99
2017-09-05T00:26:03.818Z,97.8
2017-09-05T00:27:03.842Z,98.37
2017-09-05T00:28:18.510Z,98.27
2017-09-05T00:29:03.881Z,98.18
2017-09-05T00:30:03.894Z,98.37
2017-09-05T00:32:03.937Z,98.37
2017-09-05T00:33:03.977Z,98.08
2017-09-05T00:34:03.999Z,98.37
2017-09-05T00:35:04.003Z,98.37
2017-09-05T00:36:04.027Z,98.18
2017-09-05T00:37:04.052Z,99.04
2017-09-05T00:38:04.079Z,98.94
2017-09-05T00:39:04.088Z,98.85
2017-09-05T00:40:04.127Z,98.94
2017-09-05T00:41:04.131Z,99.04
2017-09-05T00:42:04.166Z,98.37
2017-09-05T00:43:04.176Z,99.23
2017-09-05T00:44:18.815Z,99.42
2017-09-05T00:45:04.241Z,99.52
2017-09-05T00:47:04.315Z,99.85
2017-09-05T00:49:04.312Z,99.75
2017-09-05T00:50:04.343Z,99.99
2017-09-05T00:51:04.372Z,99.99
2017-09-05T00:52:04.384Z,99.99
2017-09-05T00:53:04.418Z,99.99
2017-09-05T00:54:04.415Z,99.99
2017-09-05T00:55:04.455Z,99.99
2017-09-05T00:57:04.498Z,99.99
2017-09-05T00:58:04.516Z,99.99
2017-09-05T00:59:04.532Z,99.99
2017-09-05T01:00:19.168Z,99.99
2017-09-05T01:01:04.574Z,99.99
2017-09-05T01:02:04.597Z,99.99
2017-09-05T01:04:04.337Z,99.99
2017-09-05T01:05:04.670Z,99.99
2017-09-05T01:06:04.687Z,99.99
2017-09-05T01:07:04.719Z,99.99
2017-09-05T01:08:04.725Z,99.99
2017-09-05T01:09:04.440Z,99.99
2017-09-05T01:10:04.774Z,99.99
2017-09-05T01:11:04.805Z,99.99
2017-09-05T01:12:04.826Z,99.99
2017-09-05T01:13:04.841Z,99.99
2017-09-05T01:14:04.555Z,99.99
2017-09-05T01:15:04.883Z,99.99
2017-09-05T01:16:19.518Z,99.99
2017-09-05T01:17:04.923Z,99.99
2017-09-05T01:18:04.961Z,99.99
2017-09-05T01:19:04.658Z,99.99
2017-09-05T01:20:04.993Z,99.99
2017-09-05T01:21:05.027Z,99.99
2017-09-05T01:22:04.725Z,99.99
2017-09-05T01:23:05.052Z,99.99
2017-09-05T01:24:05.085Z,99.99
2017-09-05T01:25:05.086Z,99.99
2017-09-05T01:26:05.126Z,99.99
2017-09-05T01:28:05.169Z,99.99
2017-09-05T01:30:05.217Z,99.99
2017-09-05T01:31:19.848Z,99.99
2017-09-05T01:32:05.258Z,99.99
2017-09-05T01:33:04.972Z,99.99
2017-09-05T01:34:05.298Z,99.99
2017-09-05T01:35:05.327Z,99.99
2017-09-05T01:36:05.342Z,99.99
2017-09-05T01:37:05.366Z,99.99
2017-09-05T01:39:05.408Z,99.99
2017-09-05T01:40:05.119Z,99.99
2017-09-05T01:41:05.448Z,99.99
2017-09-05T01:42:05.164Z,99.99
2017-09-05T01:43:05.492Z,99.99
2017-09-05T01:44:05.521Z,99.99
2017-09-05T01:45:05.537Z,99.99
2017-09-05T01:46:05.566Z,99.99
2017-09-05T01:47:05.584Z,99.99
2017-09-05T01:49:05.609Z,99.99
2017-09-05T01:50:05.336Z,99.99
2017-09-05T01:51:05.674Z,99.99
2017-09-05T01:52:05.697Z,99.99
2017-09-05T01:53:05.716Z,99.99
2017-09-05T01:54:05.738Z,99.99
2017-09-05T01:55:05.439Z,99.99
2017-09-05T01:56:05.774Z,99.99
2017-09-05T01:57:05.800Z,99.99
2017-09-05T01:58:05.824Z,99.99
2017-09-05T01:59:05.837Z,99.99
2017-09-05T02:00:05.868Z,99.99
2017-09-05T02:01:05.885Z,99.99
2017-09-05T02:02:05.912Z,99.99
2017-09-05T02:03:20.537Z,99.99
2017-09-05T02:04:05.642Z,99.99
2017-09-05T02:05:05.658Z,99.99
2017-09-05T02:06:05.993Z,99.99
2017-09-05T02:07:06.005Z,99.99
2017-09-05T02:08:06.041Z,99.99
2017-09-05T02:09:06.066Z,99.99
2017-09-05T02:10:06.084Z,99.99
2017-09-05T02:11:06.106Z,99.99
2017-09-05T02:12:05.809Z,99.99
2017-09-05T02:13:06.152Z,99.99
2017-09-05T02:14:06.170Z,99.99
2017-09-05T02:15:05.867Z,99.99
2017-09-05T02:16:06.250Z,99.99
2017-09-05T02:17:06.214Z,99.99
2017-09-05T02:18:06.261Z,99.99
2017-09-05T02:19:20.887Z,99.99
2017-09-05T02:20:06.296Z,99.99
2017-09-05T02:21:06.318Z,99.99
2017-09-05T02:22:06.031Z,99.99
2017-09-05T02:23:06.367Z,99.99
2017-09-05T02:24:06.364Z,99.99
2017-09-05T02:25:06.407Z,99.99
2017-09-05T02:26:06.431Z,99.99
2017-09-05T02:27:06.450Z,99.99
2017-09-05T02:28:06.467Z,99.99
2017-09-05T02:29:06.556Z,99.99
2017-09-05T02:30:06.504Z,99.99
2017-09-05T02:31:06.213Z,99.99
2017-09-05T02:32:06.276Z,99.99
2017-09-05T02:33:06.572Z,99.99
2017-09-05T02:34:06.595Z,99.99
2017-09-05T02:35:21.230Z,99.99
2017-09-05T02:36:06.637Z,99.99
2017-09-05T02:38:06.691Z,99.99
2017-09-05T02:39:06.702Z,99.99
2017-09-05T02:40:06.736Z,99.99
2017-09-05T02:41:06.433Z,99.99
2017-09-05T02:42:06.774Z,99.99
2017-09-05T02:43:06.777Z,99.99
2017-09-05T02:44:06.503Z,99.99
2017-09-05T02:45:06.826Z,99.99
2017-09-05T02:46:06.855Z,99.99
2017-09-05T02:47:06.904Z,99.99
2017-09-05T02:48:06.911Z,99.99
2017-09-05T02:49:06.604Z,99.99
2017-09-05T02:50:06.942Z,99.99
2017-09-05T02:51:21.569Z,99.99
2017-09-05T02:53:06.997Z,99.99
2017-09-05T02:54:07.029Z,99.99
2017-09-05T02:55:07.052Z,99.99
2017-09-05T02:56:07.069Z,99.99
2017-09-05T02:57:07.078Z,99.99
2017-09-05T02:58:07.118Z,99.99
2017-09-05T02:59:07.130Z,99.99
2017-09-05T03:00:07.156Z,99.99
2017-09-05T03:01:07.174Z,99.99
2017-09-05T03:02:07.200Z,99.99
2017-09-05T03:03:07.216Z,99.99
2017-09-05T03:04:07.241Z,99.99
2017-09-05T03:05:07.251Z,99.99
2017-09-05T03:06:21.894Z,99.99
2017-09-05T03:07:07.303Z,99.99
2017-09-05T03:08:07.319Z,99.99
2017-09-05T03:09:07.350Z,99.99
2017-09-05T03:10:07.373Z,99.99
2017-09-05T03:11:07.381Z,99.99
2017-09-05T03:12:07.467Z,99.99
2017-09-05T03:14:07.448Z,99.99
2017-09-05T03:15:07.491Z,99.99
2017-09-05T03:16:07.180Z,99.99
2017-09-05T03:17:07.505Z,99.99
2017-09-05T03:19:07.571Z,99.99
2017-09-05T03:20:07.590Z,99.99
2017-09-05T03:21:07.599Z,99.99
2017-09-05T03:22:07.630Z,99.99
2017-09-05T03:23:07.639Z,99.99
2017-09-05T03:24:07.360Z,99.99
2017-09-05T03:25:07.680Z,99.99
2017-09-05T03:26:07.402Z,99.99
2017-09-05T03:27:07.729Z,99.99
2017-09-05T03:28:07.755Z,99.99
2017-09-05T03:29:07.764Z,99.99
2017-09-05T03:30:07.793Z,99.99
2017-09-05T03:31:07.825Z,99.99
2017-09-05T03:32:07.833Z,99.99
2017-09-05T03:33:07.549Z,99.99
2017-09-05T03:34:07.884Z,99.99
2017-09-05T03:35:07.897Z,99.99
2017-09-05T03:36:07.922Z,99.99
2017-09-05T03:37:07.942Z,99.99
2017-09-05T03:38:22.570Z,99.99
2017-09-05T03:39:07.991Z,99.99
2017-09-05T03:40:07.995Z,99.99
2017-09-05T03:41:08.025Z,99.99
2017-09-05T03:42:08.049Z,99.99
2017-09-05T03:43:08.068Z,99.99
2017-09-05T03:44:08.097Z,99.99
2017-09-05T03:45:08.147Z,99.99
2017-09-05T03:46:08.127Z,99.99
2017-09-05T03:47:08.158Z,99.99
2017-09-05T03:48:08.160Z,99.99
2017-09-05T03:49:08.199Z,99.99
2017-09-05T03:50:08.216Z,99.99
2017-09-05T03:51:08.242Z,99.99
2017-09-05T03:52:08.254Z,99.99
2017-09-05T03:53:08.282Z,99.99
2017-09-05T03:54:22.913Z,99.99
2017-09-05T03:56:08.342Z,99.99
2017-09-05T03:57:08.354Z,99.99
2017-09-05T03:58:08.395Z,99.99
2017-09-05T03:59:08.403Z,99.99
2017-09-05T04:00:08.432Z,99.99
2017-09-05T04:01:08.457Z,99.99
2017-09-05T04:02:08.469Z,99.99
2017-09-05T04:03:08.496Z,99.99
2017-09-05T04:04:08.510Z,99.99
2017-09-05T04:05:08.226Z,99.99
2017-09-05T04:06:08.239Z,99.99
2017-09-05T04:07:08.570Z,99.99
2017-09-05T04:08:08.597Z,99.99
2017-09-05T04:09:08.304Z,99.99
2017-09-05T04:10:23.248Z,99.99
2017-09-05T04:11:08.668Z,99.99
2017-09-05T04:12:08.681Z,99.99
2017-09-05T04:13:08.696Z,99.99
2017-09-05T04:15:08.750Z,99.99
2017-09-05T04:16:08.755Z,99.99
2017-09-05T04:17:08.791Z,99.99
2017-09-05T04:18:08.800Z,99.99
2017-09-05T04:19:08.839Z,99.99
2017-09-05T04:20:08.845Z,99.99
2017-09-05T04:21:08.866Z,99.99
2017-09-05T04:22:08.582Z,99.99
2017-09-05T04:23:08.898Z,99.99
2017-09-05T04:24:08.621Z,99.99
2017-09-05T04:26:23.583Z,99.99
2017-09-05T04:27:08.979Z,99.99
2017-09-05T04:28:09.020Z,99.99
2017-09-05T04:29:08.716Z,99.99
2017-09-05T04:30:09.058Z,99.99
2017-09-05T04:31:09.076Z,99.99
2017-09-05T04:32:09.107Z,99.99
2017-09-05T04:33:08.804Z,99.99
2017-09-05T04:34:09.149Z,99.99
2017-09-05T04:35:09.162Z,99.99
2017-09-05T04:36:08.873Z,99.99
2017-09-05T04:37:09.190Z,99.99
2017-09-05T04:38:09.220Z,99.99
2017-09-05T04:39:09.245Z,99.99
2017-09-05T04:40:09.273Z,99.99
2017-09-05T04:41:23.905Z,99.99
2017-09-05T04:42:09.297Z,99.99
2017-09-05T04:43:09.332Z,99.99
2017-09-05T04:44:09.346Z,99.99
2017-09-05T04:45:09.367Z,99.99
2017-09-05T04:46:09.088Z,99.99
2017-09-05T04:47:09.109Z,99.99
2017-09-05T04:48:09.130Z,99.99
2017-09-05T04:49:09.447Z,99.99
2017-09-05T04:50:09.480Z,99.99
2017-09-05T04:51:09.495Z,99.99
2017-09-05T04:52:09.522Z,99.99
2017-09-05T04:53:09.542Z,99.99
2017-09-05T04:54:09.567Z,99.99
2017-09-05T04:55:09.576Z,99.99
2017-09-05T04:56:09.608Z,99.99
2017-09-05T04:57:09.665Z,99.99
2017-09-05T04:58:09.336Z,99.99
2017-09-05T04:59:09.669Z,99.99
2017-09-05T05:00:09.696Z,99.99
2017-09-05T05:01:09.709Z,99.99
2017-09-05T05:02:09.780Z,99.99
2017-09-05T05:03:09.444Z,99.99
2017-09-05T05:04:09.773Z,99.99
2017-09-05T05:05:09.796Z,99.99
2017-09-05T05:06:09.822Z,99.99
2017-09-05T05:07:09.836Z,99.99
2017-09-05T05:08:09.851Z,99.99
2017-09-05T05:09:09.886Z,99.99
2017-09-05T05:10:09.901Z,99.99
2017-09-05T05:11:09.923Z,99.99
2017-09-05T05:12:09.937Z,99.99
2017-09-05T05:13:24.580Z,99.99
2017-09-05T05:14:09.671Z,99.99
2017-09-05T05:15:10.010Z,99.99
2017-09-05T05:16:09.724Z,99.99
2017-09-05T05:17:10.057Z,99.99
2017-09-05T05:18:10.131Z,99.99
2017-09-05T05:19:10.089Z,99.99
2017-09-05T05:20:10.120Z,99.99
2017-09-05T05:21:10.132Z,99.99
2017-09-05T05:22:10.151Z,99.99
2017-09-05T05:23:10.193Z,99.99
2017-09-05T05:24:10.202Z,99.99
2017-09-05T05:25:10.232Z,99.99
2017-09-05T05:26:10.257Z,99.99
2017-09-05T05:27:10.275Z,99.99
2017-09-05T05:28:10.298Z,99.99
2017-09-05T05:29:24.921Z,99.99
2017-09-05T05:31:10.359Z,99.99
2017-09-05T05:32:10.384Z,99.28
2017-09-05T05:33:10.411Z,99.18
2017-09-05T05:35:10.453Z,98.52
2017-09-05T05:36:10.459Z,98.03
2017-09-05T05:37:10.494Z,97.27
2017-09-05T05:38:10.516Z,97.47
2017-09-05T05:39:10.540Z,96.8
2017-09-05T05:40:10.562Z,97.37
2017-09-05T05:41:10.577Z,97.37
2017-09-05T05:42:10.605Z,96.7
2017-09-05T05:43:10.625Z,96.56
2017-09-05T05:44:10.643Z,96.8
2017-09-05T05:45:25.279Z,96.61
2017-09-05T05:46:10.693Z,95.89
2017-09-05T05:47:10.714Z,95.89
2017-09-05T05:48:10.732Z,95.12
2017-09-05T05:52:10.829Z,94.74
2017-09-05T05:53:10.836Z,94.31
2017-09-05T05:54:10.876Z,93.07
2017-09-05T05:55:10.891Z,91.49
2017-09-05T05:56:10.917Z,89.62
2017-09-05T05:57:10.932Z,87.27
2017-09-05T05:58:10.967Z,85.31
2017-09-05T05:59:11.007Z,83.44
2017-09-05T06:00:11.012Z,81.56
2017-09-05T06:01:25.650Z,79.21
2017-09-05T06:02:11.063Z,78.38
2017-09-05T06:03:11.088Z,76.79
2017-09-05T06:04:11.110Z,75.06
2017-09-05T06:05:11.144Z,74.52
2017-09-05T06:06:11.168Z,74.71
2017-09-05T06:07:11.245Z,73.75
2017-09-05T06:08:11.207Z,72.73
2017-09-05T06:09:11.240Z,71.96
2017-09-05T06:10:10.963Z,72.16
2017-09-05T06:12:11.340Z,70.37
2017-09-05T06:13:11.033Z,69.6
2017-09-05T06:14:11.390Z,69.06
2017-09-05T06:15:11.412Z,68.19
2017-09-05T06:16:26.054Z,67.55
2017-09-05T06:17:11.470Z,66.88
2017-09-05T06:18:11.498Z,67.16
2017-09-05T06:20:11.565Z,66.49
2017-09-05T06:21:11.589Z,67.26
2017-09-05T06:23:11.654Z,64.79
2017-09-05T06:24:11.685Z,64.5
2017-09-05T06:25:11.699Z,63.95
2017-09-05T06:26:11.724Z,63.76
2017-09-05T06:27:11.773Z,63.38
2017-09-05T06:28:11.795Z,62.99
2017-09-05T06:29:11.833Z,63.12
2017-09-05T06:30:11.548Z,62.54
2017-09-05T06:31:11.898Z,61.1
2017-09-05T06:32:11.923Z,61.41
2017-09-05T06:33:11.957Z,61.96
2017-09-05T06:34:11.989Z,60.8
2017-09-05T06:35:12.025Z,60.32
2017-09-05T06:37:11.770Z,60.06
2017-09-05T06:38:12.128Z,60.16
2017-09-05T06:39:12.145Z,59.32
2017-09-05T06:40:12.180Z,59.71
2017-09-05T06:41:12.218Z,60.06
2017-09-05T06:42:12.255Z,59.23
2017-09-05T06:43:12.281Z,59.32
2017-09-05T06:44:12.315Z,57.9
2017-09-05T06:45:12.350Z,58.39
2017-09-05T06:46:12.382Z,57.62
2017-09-05T06:47:12.408Z,58.29
2017-09-05T06:48:27.062Z,56.87
2017-09-05T06:49:12.470Z,56.39
2017-09-05T06:50:12.196Z,57.71
2017-09-05T06:51:12.550Z,56.39
2017-09-05T06:52:12.611Z,56.29
2017-09-05T06:53:12.618Z,56.13
2017-09-05T06:54:12.639Z,56.61
2017-09-05T06:55:12.683Z,55.65
2017-09-05T06:56:12.719Z,55.45
2017-09-05T06:57:12.750Z,54.87
2017-09-05T06:58:12.784Z,55.45
2017-09-05T06:59:12.827Z,54.77
2017-09-05T07:00:12.860Z,55.09
2017-09-05T07:01:12.869Z,55.29
2017-09-05T07:02:12.922Z,55.09
2017-09-05T07:03:13.243Z,54.8
2017-09-05T07:04:27.595Z,54.8
2017-09-05T07:05:13.010Z,56.41
2017-09-05T07:06:13.148Z,56.03
2017-09-05T07:08:13.120Z,57.71
2017-09-05T07:09:13.253Z,57.81
2017-09-05T07:10:13.182Z,57.71
2017-09-05T07:11:13.210Z,57.64
2017-09-05T07:12:13.357Z,57.06
2017-09-05T07:13:13.285Z,56.22
2017-09-05T07:14:13.111Z,55.74
2017-09-05T07:15:13.457Z,56.22
2017-09-05T07:16:13.489Z,56.41
2017-09-05T07:17:13.430Z,56.68
2017-09-05T07:18:13.453Z,57.64
2017-09-05T07:19:13.497Z,56.77
2017-09-05T07:20:28.133Z,57.74
2017-09-05T07:21:13.661Z,57.64
2017-09-05T07:22:13.585Z,57.84
2017-09-05T07:23:13.632Z,57.74
2017-09-05T07:24:13.656Z,56.71
2017-09-05T07:25:13.689Z,55.09
2017-09-05T07:26:13.735Z,55.47
2017-09-05T07:27:13.782Z,57.64
2017-09-05T07:28:13.796Z,57.62
2017-09-05T07:29:13.830Z,58.84
2017-09-05T07:30:13.866Z,59.61
2017-09-05T07:31:13.903Z,58.75
2017-09-05T07:33:13.980Z,58.87
2017-09-05T07:34:14.015Z,58.19
2017-09-05T07:35:14.126Z,57.52
2017-09-05T07:36:28.677Z,57.74
2017-09-05T07:37:14.190Z,56.71
2017-09-05T07:38:14.131Z,56.51
2017-09-05T07:39:14.169Z,55.26
2017-09-05T07:40:14.295Z,54.41
2017-09-05T07:41:14.233Z,53.77
2017-09-05T07:42:14.359Z,54.22
2017-09-05T07:43:14.314Z,54.97
2017-09-05T07:44:14.330Z,55.52
2017-09-05T07:45:14.053Z,55.07
2017-09-05T07:46:14.499Z,55.52
2017-09-05T07:47:14.423Z,56.46
2017-09-05T07:48:14.165Z,56.56
2017-09-05T07:49:14.535Z,56.36
2017-09-05T07:51:29.184Z,55.42
2017-09-05T07:52:14.700Z,55.26
2017-09-05T07:53:14.730Z,55.33
2017-09-05T07:54:14.662Z,55.26
2017-09-05T07:55:14.711Z,53.64
2017-09-05T07:56:14.736Z,53.35
2017-09-05T07:57:14.804Z,52.99
2017-09-05T07:58:14.897Z,52.34
2017-09-05T07:59:14.839Z,52.53
2017-09-05T08:00:14.964Z,53.57
2017-09-05T08:01:14.912Z,53.67
2017-09-05T08:02:14.932Z,54.29
2017-09-05T08:03:14.978Z,55.13
2017-09-05T08:04:15.122Z,54.94
2017-09-05T08:05:15.031Z,55.33
2017-09-05T08:06:15.067Z,55.04
2017-09-05T08:07:15.100Z,54.87
2017-09-05T08:08:15.131Z,53.64
2017-09-05T08:09:15.280Z,53.19
2017-09-05T08:10:15.201Z,51.93
2017-09-05T08:11:15.244Z,52.22
2017-09-05T08:12:15.415Z,51.66
2017-09-05T08:13:15.418Z,51.01
2017-09-05T08:14:15.329Z,51.37
2017-09-05T08:15:15.365Z,51.83
2017-09-05T08:16:15.545Z,51.73
2017-09-05T08:17:15.221Z,51.54
2017-09-05T08:18:15.455Z,51.18
2017-09-05T08:19:15.496Z,51.81
2017-09-05T08:20:15.531Z,51.9
2017-09-05T08:21:15.558Z,51.06
2017-09-05T08:22:15.609Z,51.83
2017-09-05T08:23:30.247Z,51.64
2017-09-05T08:24:15.656Z,50.76
2017-09-05T08:26:15.715Z,50.86
2017-09-05T08:27:15.459Z,50.18
2017-09-05T08:28:15.791Z,50.28
2017-09-05T08:29:15.824Z,50.4
2017-09-05T08:30:15.859Z,50.38
2017-09-05T08:31:15.576Z,50.18
2017-09-05T08:32:15.916Z,50.86
2017-09-05T08:33:15.951Z,50.65
2017-09-05T08:34:15.986Z,50.57
2017-09-05T08:35:16.017Z,50.18
2017-09-05T08:36:16.050Z,49.9
2017-09-05T08:37:16.073Z,50.48
2017-09-05T08:38:15.803Z,50.45
2017-09-05T08:39:30.763Z,49.97
2017-09-05T08:40:16.174Z,50.45
2017-09-05T08:42:16.259Z,50.28
2017-09-05T08:43:16.376Z,49.73
2017-09-05T08:44:16.308Z,50.48
2017-09-05T08:45:16.440Z,49.15
2017-09-05T08:46:16.473Z,49.02
2017-09-05T08:47:16.401Z,48.47
2017-09-05T08:48:16.432Z,48.57
2017-09-05T08:49:16.662Z,49.32
2017-09-05T08:50:16.496Z,49.12
2017-09-05T08:51:16.538Z,49.05
2017-09-05T08:52:16.576Z,48.18
2017-09-05T08:53:16.698Z,48.37
2017-09-05T08:54:16.621Z,47.99
2017-09-05T08:55:31.278Z,47.72
2017-09-05T08:56:16.684Z,48.08
2017-09-05T08:57:16.719Z,49.51
2017-09-05T08:58:16.852Z,49.22
2017-09-05T08:59:16.778Z,48.37
2017-09-05T09:00:16.825Z,47.99
2017-09-05T09:02:16.874Z,47.89
2017-09-05T09:03:17.004Z,47.81
2017-09-05T09:04:17.040Z,46.87
2017-09-05T09:05:16.970Z,46.51
2017-09-05T09:06:17.003Z,46.89
2017-09-05T09:07:17.037Z,46.89
2017-09-05T09:08:17.266Z,46.67
2017-09-05T09:09:17.095Z,46.51
2017-09-05T09:10:17.128Z,45.83
2017-09-05T09:11:31.832Z,46.22
2017-09-05T09:12:17.201Z,46.6
2017-09-05T09:13:17.226Z,46.31
2017-09-05T09:14:16.944Z,46.41
2017-09-05T09:15:17.294Z,46.41
2017-09-05T09:16:17.316Z,46.41
2017-09-05T09:17:17.375Z,46.6
2017-09-05T09:18:17.490Z,46.41
2017-09-05T09:19:17.424Z,46.87
2017-09-05T09:20:17.547Z,46.97
2017-09-05T09:21:17.694Z,46.39
2017-09-05T09:22:17.511Z,46.94
2017-09-05T09:23:17.544Z,47.62
2017-09-05T09:24:17.571Z,47.62
2017-09-05T09:25:17.602Z,48.95
2017-09-05T09:26:32.258Z,48.08
2017-09-05T09:27:17.678Z,47.81
2017-09-05T09:29:17.745Z,47.99
2017-09-05T09:30:17.956Z,47.79
2017-09-05T09:31:17.790Z,47.81
2017-09-05T09:32:18.229Z,47.14
2017-09-05T09:33:17.859Z,47.06
2017-09-05T09:34:17.907Z,47.43
2017-09-05T09:35:18.014Z,47.45
2017-09-05T09:36:18.062Z,48.2
2017-09-05T09:37:17.974Z,48.37
2017-09-05T09:38:18.010Z,48.66
2017-09-05T09:39:17.736Z,48.37
2017-09-05T09:40:18.069Z,48.66
2017-09-05T09:42:17.924Z,47.91
2017-09-05T09:43:18.186Z,47.62
2017-09-05T09:45:18.230Z,47.16
2017-09-05T09:46:18.262Z,47.24
2017-09-05T09:47:18.288Z,47.14
2017-09-05T09:48:18.436Z,47.14
2017-09-05T09:49:18.355Z,46.94
2017-09-05T09:50:18.399Z,46.67
2017-09-05T09:51:18.557Z,47.26
2017-09-05T09:52:18.452Z,48.39
2017-09-05T09:53:18.491Z,48.57
2017-09-05T09:54:18.190Z,49.7
2017-09-05T09:55:18.537Z,49.7
2017-09-05T09:56:18.579Z,49.15
2017-09-05T09:57:18.614Z,48.86
2017-09-05T09:58:33.244Z,48.76
2017-09-05T09:59:18.674Z,48.27
2017-09-05T10:00:18.686Z,48.3
2017-09-05T10:01:18.714Z,47.89
2017-09-05T10:02:18.436Z,48.11
2017-09-05T10:03:18.801Z,47.43
2017-09-05T10:04:18.825Z,47.24
2017-09-05T10:05:18.850Z,47.89
2017-09-05T10:06:18.867Z,48.08
2017-09-05T10:07:18.998Z,48.76
2017-09-05T10:08:19.025Z,48.47
2017-09-05T10:09:19.061Z,48.59
2017-09-05T10:10:18.990Z,47.74
2017-09-05T10:11:19.034Z,46.97
2017-09-05T10:12:19.055Z,47.84
2017-09-05T10:14:33.727Z,48.01
2017-09-05T10:15:19.236Z,47.81
2017-09-05T10:16:19.180Z,48.11
2017-09-05T10:17:19.197Z,48.27
2017-09-05T10:18:19.239Z,50.09
2017-09-05T10:19:19.406Z,50.09
2017-09-05T10:20:19.433Z,49.97
2017-09-05T10:21:19.008Z,49.9
2017-09-05T10:22:19.363Z,50.48
2017-09-05T10:23:19.494Z,50.07
2017-09-05T10:24:19.410Z,49.9
2017-09-05T10:25:19.432Z,50.35
2017-09-05T10:26:19.478Z,51.1
2017-09-05T10:27:19.488Z,50.93
2017-09-05T10:28:19.534Z,51.78
2017-09-05T10:29:19.555Z,52.04
2017-09-05T10:30:34.207Z,52.53
2017-09-05T10:31:19.610Z,52.62
2017-09-05T10:32:19.638Z,53.01
2017-09-05T10:33:19.683Z,53.17
2017-09-05T10:34:19.801Z,52.91
2017-09-05T10:35:19.742Z,52.75
2017-09-05T10:36:19.759Z,52.36
2017-09-05T10:37:19.792Z,52.45
2017-09-05T10:38:19.503Z,51.97
2017-09-05T10:39:19.848Z,51.81
2017-09-05T10:40:20.086Z,51.61
2017-09-05T10:41:19.657Z,52.55
2017-09-05T10:42:19.937Z,51.59
2017-09-05T10:43:19.957Z,51.97
2017-09-05T10:44:20.002Z,51.61
2017-09-05T10:45:20.009Z,51.87
2017-09-05T10:46:34.666Z,51.68
2017-09-05T10:47:20.170Z,51.87
2017-09-05T10:48:20.099Z,51.97
2017-09-05T10:49:19.813Z,52.17
2017-09-05T10:50:20.267Z,52.81
2017-09-05T10:51:20.176Z,52.81
2017-09-05T10:52:19.999Z,53.42
2017-09-05T10:53:20.249Z,53.03
2017-09-05T10:54:20.059Z,53.03
2017-09-05T10:55:19.982Z,52.26
2017-09-05T10:56:20.421Z,51.59
2017-09-05T10:57:20.363Z,51.39
2017-09-05T10:58:20.381Z,51.2
2017-09-05T10:59:20.509Z,51.1
2017-09-05T11:00:20.455Z,50.81
2017-09-05T11:01:35.080Z,50.52
2017-09-05T11:02:20.508Z,50.81
2017-09-05T11:03:20.514Z,50.52
2017-09-05T11:04:20.545Z,51.2
2017-09-05T11:05:20.676Z,51.49
2017-09-05T11:06:20.597Z,51.97
2017-09-05T11:07:20.637Z,52.26
2017-09-05T11:08:20.672Z,53.01
2017-09-05T11:09:20.474Z,52.04
2017-09-05T11:10:20.400Z,52.43
2017-09-05T11:11:20.737Z,52.26
2017-09-05T11:12:20.767Z,52.23
2017-09-05T11:13:20.789Z,51.97
2017-09-05T11:14:20.836Z,51.46
2017-09-05T11:16:20.880Z,50.91
2017-09-05T11:17:20.918Z,50.71
2017-09-05T11:18:20.929Z,51.1
2017-09-05T11:20:21.179Z,50.71
2017-09-05T11:21:21.010Z,51.68
2017-09-05T11:22:20.727Z,52.23
2017-09-05T11:23:20.852Z,52.55
2017-09-05T11:24:21.098Z,51.97
2017-09-05T11:25:21.131Z,51.97
2017-09-05T11:26:21.151Z,51.1
2017-09-05T11:27:20.959Z,51.87
2017-09-05T11:28:21.199Z,51.97
2017-09-05T11:29:21.227Z,51.2
2017-09-05T11:30:21.268Z,51.65
2017-09-05T11:32:21.313Z,51.95
2017-09-05T11:33:35.959Z,51.56
2017-09-05T11:34:21.356Z,50.62
2017-09-05T11:35:21.386Z,51.17
2017-09-05T11:36:21.206Z,51.46
2017-09-05T11:37:21.232Z,50.91
2017-09-05T11:38:21.160Z,51.39
2017-09-05T11:40:21.525Z,51.01
2017-09-05T11:41:21.250Z,50.33
2017-09-05T11:42:21.282Z,50.81
2017-09-05T11:43:21.718Z,50.81
2017-09-05T11:44:21.467Z,51.49
2017-09-05T11:45:21.663Z,50.33
2017-09-05T11:46:21.684Z,50.69
2017-09-05T11:47:21.708Z,50.91
2017-09-05T11:48:21.427Z,50.91
2017-09-05T11:49:36.386Z,50.43
2017-09-05T11:50:21.800Z,49.85
2017-09-05T11:51:21.823Z,49.95
2017-09-05T11:52:21.940Z,50.33
2017-09-05T11:53:21.974Z,50.23
2017-09-05T11:54:21.919Z,50.23
2017-09-05T11:55:21.933Z,50.13
2017-09-05T11:56:21.964Z,49.95
2017-09-05T11:57:21.977Z,50.52
2017-09-05T11:58:22.007Z,49.55
2017-09-05T11:59:22.028Z,49.46
2017-09-05T12:00:22.066Z,49.44
2017-09-05T12:01:22.099Z,49.27
2017-09-05T12:02:22.222Z,49.95
2017-09-05T12:04:22.168Z,50.81
2017-09-05T12:05:36.815Z,50.45
2017-09-05T12:06:22.220Z,50.45
2017-09-05T12:07:22.250Z,50.62
2017-09-05T12:09:22.453Z,51.97
2017-09-05T12:10:22.374Z,51.01
2017-09-05T12:11:22.354Z,50.93
2017-09-05T12:12:22.379Z,51.03
2017-09-05T12:13:22.423Z,50.55
2017-09-05T12:14:22.539Z,48.71
2017-09-05T12:15:22.561Z,49.19
2017-09-05T12:16:22.585Z,49.19
2017-09-05T12:17:22.510Z,48.61
2017-09-05T12:18:22.753Z,48.97
2017-09-05T12:19:22.572Z,49.29
2017-09-05T12:20:22.603Z,49.65
2017-09-05T12:21:37.242Z,50.23
2017-09-05T12:22:22.663Z,50.62
2017-09-05T12:23:22.684Z,50.23
2017-09-05T12:24:22.700Z,50.26
2017-09-05T12:25:22.723Z,49.68
2017-09-05T12:26:22.921Z,48.97
2017-09-05T12:27:22.904Z,49.1
2017-09-05T12:28:22.807Z,48.52
2017-09-05T12:29:22.837Z,49.1
2017-09-05T12:30:22.651Z,49.65
2017-09-05T12:31:22.904Z,48.88
2017-09-05T12:32:22.910Z,48.52
2017-09-05T12:33:22.956Z,48.9
2017-09-05T12:34:22.977Z,48.61
2017-09-05T12:35:23.098Z,47.84
2017-09-05T12:36:37.649Z,47.84
2017-09-05T12:37:23.065Z,47.94
2017-09-05T12:38:23.175Z,48.69
2017-09-05T12:39:23.103Z,48.79
2017-09-05T12:40:23.232Z,48.39
2017-09-05T12:41:23.298Z,48.88
2017-09-05T12:42:23.187Z,49.58
2017-09-05T12:43:23.218Z,48.88
2017-09-05T12:44:22.933Z,49.65
2017-09-05T12:45:23.413Z,50.52
2017-09-05T12:46:23.287Z,49.85
2017-09-05T12:47:23.316Z,49.85
2017-09-05T12:49:23.375Z,49.46
2017-09-05T12:50:23.197Z,50.23
2017-09-05T12:52:23.593Z,48.69
2017-09-05T12:53:23.474Z,48.88
2017-09-05T12:54:23.604Z,49.07
2017-09-05T12:55:23.548Z,49.19
2017-09-05T12:56:23.562Z,48.81
2017-09-05T12:57:23.598Z,50.07
2017-09-05T12:58:23.605Z,49.58
2017-09-05T12:59:23.329Z,48.9
2017-09-05T13:00:23.659Z,49.29
2017-09-05T13:01:23.892Z,49.1
2017-09-05T13:02:23.728Z,49.1
2017-09-05T13:03:23.742Z,49.39
2017-09-05T13:04:23.764Z,49.39
2017-09-05T13:05:23.794Z,48.61
2017-09-05T13:06:23.507Z,48.52
2017-09-05T13:07:23.848Z,47.94
2017-09-05T13:08:38.493Z,48.61
2017-09-05T13:09:23.906Z,48.61
2017-09-05T13:10:23.932Z,48.9
2017-09-05T13:11:24.052Z,49.1
2017-09-05T13:12:24.096Z,49.55
2017-09-05T13:13:24.034Z,50.04
2017-09-05T13:14:23.768Z,50.16
2017-09-05T13:15:24.058Z,49.58
2017-09-05T13:16:24.101Z,49.87
2017-09-05T13:17:24.117Z,49.97
2017-09-05T13:18:23.838Z,48.9
2017-09-05T13:19:24.164Z,49.68
2017-09-05T13:20:24.199Z,49
2017-09-05T13:21:24.375Z,49.1
2017-09-05T13:22:24.258Z,48.71
2017-09-05T13:23:24.275Z,48.81
2017-09-05T13:24:38.947Z,48.42
2017-09-05T13:25:24.484Z,48.13
2017-09-05T13:26:24.348Z,46.97
2017-09-05T13:27:24.375Z,46.39
2017-09-05T13:28:24.510Z,46.88
2017-09-05T13:29:24.454Z,47.26
2017-09-05T13:30:24.478Z,44.67
2017-09-05T13:31:24.488Z,44.75
2017-09-05T13:32:24.516Z,45.62
2017-09-05T13:33:24.542Z,45.52
2017-09-05T13:34:24.672Z,46.3
2017-09-05T13:35:24.585Z,46.7
2017-09-05T13:36:24.623Z,46.7
2017-09-05T13:38:24.462Z,46.7
2017-09-05T13:40:39.345Z,47.26
2017-09-05T13:41:24.754Z,47.65
2017-09-05T13:42:24.874Z,47.26